Time;durP1;ratioP1;P1;durP2;ratioP2;P2;SDS_P1;SDS_P2;PMS_P1;PMS_P2;Temp;Humidity;BMP_temperature;BMP_pressure;BME280_temperature;BME280_humidity;BME280_pressure;Samples;Min_cycle;Max_cycle;Signal;HPM_P1;HPM_P2
2023/07/31 00:01:43;;;;;;;32.85;31.05;;;;;;;-141.02;100.00;57006.53;5112884;28;20283;-69
2023/07/31 00:04:10;;;;;;;31.77;30.08;;;;;;;-141.02;100.00;65654.13;5112939;28;20281;-65
2023/07/31 00:06:36;;;;;;;33.72;31.83;;;;;;;-141.02;100.00;71844.47;5112914;28;20217;-58
2023/07/31 00:09:03;;;;;;;36.50;34.30;;;;;;;-141.02;100.00;77549.47;5112857;28;20200;-67
2023/07/31 00:11:30;;;;;;;37.72;35.33;;;;;;;-141.02;100.00;82518.06;5112601;28;20193;-68
2023/07/31 00:13:57;;;;;;;39.13;36.53;;;;;;;-141.02;100.00;86995.94;5112533;28;20220;-61
2023/07/31 00:16:26;;;;;;;35.38;33.17;;;;;;;-141.02;100.00;91479.63;5112785;28;20200;-69
2023/07/31 00:18:53;;;;;;;39.13;36.58;;;;;;;-141.02;100.00;94970.94;5112782;28;20225;-67
2023/07/31 00:21:20;;;;;;;38.60;36.15;;;;;;;-141.02;100.00;97716.59;5112702;28;20289;-70
2023/07/31 00:23:47;;;;;;;38.28;35.88;;;;;;;-141.02;100.00;100214.53;5112960;28;20225;-68
2023/07/31 00:26:14;;;;;;;38.20;35.80;;;;;;;-141.02;100.00;101964.16;5112651;28;20193;-68
2023/07/31 00:28:41;;;;;;;37.28;35.08;;;;;;;-141.02;100.00;103214.44;5112251;28;20661;-71
2023/07/31 00:31:08;;;;;;;37.25;35.05;;;;;;;-141.02;100.00;104465.16;5112625;28;20219;-69
2023/07/31 00:33:36;;;;;;;36.63;34.58;;;;;;;-141.02;100.00;105466.03;5116085;28;20679;-68
2023/07/31 00:36:04;;;;;;;36.25;34.25;;;;;;;-141.02;100.00;106216.91;5116930;28;20625;-59
2023/07/31 00:38:31;;;;;;;37.03;35.03;;;;;;;-141.02;100.00;106967.91;5116773;28;20216;-69
2023/07/31 00:40:58;;;;;;;36.58;34.58;;;;;;;-141.02;100.00;107468.69;5117067;28;20282;-71
2023/07/31 00:43:26;;;;;;;35.70;33.90;;;;;;;-141.02;100.00;107719.09;5116441;28;20284;-69
2023/07/31 00:46:08;;;;;;;35.90;34.10;;;;;;;-141.02;100.00;107969.53;5116358;28;20285;-58
2023/07/31 00:49:18;;;;;;;34.65;32.95;;;;;;;-141.02;100.00;107971.50;5116541;28;20573;-65
2023/07/31 00:51:57;;;;;;;35.85;34.15;;;;;;;-141.02;100.00;107971.50;5116487;28;20233;-58
2023/07/31 00:54:24;;;;;;;33.28;31.67;;;;;;;-141.02;100.00;107971.50;5116640;28;20199;-66
2023/07/31 00:56:54;;;;;;;35.90;34.13;;;;;;;-141.02;100.00;107971.50;5116519;28;20632;-69
2023/07/31 00:59:21;;;;;;;34.80;33.10;;;;;;;-141.02;100.00;107971.50;5116451;28;20311;-67
2023/07/31 01:01:48;;;;;;;38.65;36.75;;;;;;;-141.02;100.00;107971.50;5116293;28;20203;-70
2023/07/31 01:04:15;;;;;;;38.03;36.13;;;;;;;-141.02;100.00;107971.50;5116100;28;20610;-69
2023/07/31 01:06:56;;;;;;;30.80;29.30;;;;;;;-141.02;100.00;107971.50;5116016;28;20236;-64
2023/07/31 01:09:35;;;;;;;35.90;34.10;;;;;;;-141.02;100.00;107971.50;5116015;28;20618;-70
2023/07/31 01:12:04;;;;;;;35.28;33.47;;;;;;;-141.02;100.00;107971.50;5115939;28;20201;-67
2023/07/31 01:14:31;;;;;;;33.70;32.00;;;;;;;-141.02;100.00;107971.50;5116248;28;20254;-70
2023/07/31 01:16:58;;;;;;;35.75;33.95;;;;;;;-141.02;100.00;107971.50;5116383;28;20284;-57
2023/07/31 01:19:27;;;;;;;36.83;35.00;;;;;;;-141.02;100.00;107971.50;5115764;28;20284;-69
2023/07/31 01:22:17;;;;;;;37.33;35.53;;;;;;;-141.02;100.00;107971.50;5115691;28;20193;-70
2023/07/31 01:24:59;;;;;;;38.95;37.05;;;;;;;-141.02;100.00;107971.50;5116006;28;20214;-64
2023/07/31 01:27:35;;;;;;;37.67;35.88;;;;;;;-141.02;100.00;107971.50;5115582;28;20295;-69
2023/07/31 01:30:10;;;;;;;37.15;35.35;;;;;;;-141.02;100.00;107971.50;5115826;28;20188;-66
2023/07/31 01:32:41;;;;;;;38.83;36.92;;;;;;;-141.02;100.00;107971.50;5115895;28;20238;-67
2023/07/31 01:35:09;;;;;;;36.80;35.10;;;;;;;-141.02;100.00;107971.50;5115474;28;20246;-64
2023/07/31 01:37:36;;;;;;;35.28;33.58;;;;;;;-141.02;100.00;107971.50;5115385;28;20240;-69
2023/07/31 01:40:03;;;;;;;34.88;33.28;;;;;;;-141.02;100.00;107971.50;5115386;28;20307;-68
2023/07/31 01:42:31;;;;;;;30.55;29.15;;;;;;;-141.02;100.00;107971.50;5115377;28;20606;-63
2023/07/31 01:44:58;;;;;;;32.83;31.33;;;;;;;-141.02;100.00;107971.50;5114610;28;20197;-68
2023/07/31 01:47:25;;;;;;;30.02;28.67;;;;;;;-141.02;100.00;107971.50;5115168;28;20263;-61
2023/07/31 01:49:57;;;;;;;27.67;26.48;;;;;;;-141.02;100.00;107971.50;5115123;28;20613;-67
2023/07/31 01:52:39;;;;;;;26.15;25.05;;;;;;;-141.02;100.00;107971.50;5115487;28;20296;-64
2023/07/31 01:55:06;;;;;;;23.73;22.73;;;;;;;-141.02;100.00;107971.50;5115721;28;20367;-58
2023/07/31 01:57:38;;;;;;;20.60;19.80;;;;;;;-141.02;100.00;107971.50;5115422;28;20659;-67
2023/07/31 02:00:15;;;;;;;22.83;21.92;;;;;;;-141.02;100.00;107971.50;5115371;28;20221;-63
2023/07/31 02:02:42;;;;;;;22.60;21.70;;;;;;;-141.02;100.00;107971.50;5115189;28;20582;-60
2023/07/31 02:05:09;;;;;;;22.00;21.10;;;;;;;-141.02;100.00;107971.50;5115218;28;20193;-66
2023/07/31 02:07:36;;;;;;;21.67;20.77;;;;;;;-141.02;100.00;107971.50;5115177;28;20308;-67
2023/07/31 02:10:15;;;;;;;20.83;20.02;;;;;;;-141.02;100.00;107971.50;5115061;28;20296;-60
2023/07/31 02:12:44;;;;;;;19.25;18.55;;;;;;;-141.02;100.00;107971.50;5114826;28;20197;-56
2023/07/31 02:15:11;;;;;;;20.40;19.60;;;;;;;-141.02;100.00;107971.50;5115219;28;20193;-59
2023/07/31 02:17:38;;;;;;;20.30;19.50;;;;;;;-141.02;100.00;107971.50;5114976;28;20276;-61
2023/07/31 02:20:06;;;;;;;20.50;19.70;;;;;;;-141.02;100.00;107971.50;5114865;28;20627;-56
2023/07/31 02:22:33;;;;;;;19.90;19.10;;;;;;;-141.02;100.00;107971.50;5114557;28;20199;-66
2023/07/31 02:25:00;;;;;;;20.40;19.60;;;;;;;-141.02;100.00;107971.50;5114605;28;20232;-64
2023/07/31 02:27:27;;;;;;;19.70;19.00;;;;;;;-141.02;100.00;107971.50;5114594;28;20225;-58
2023/07/31 02:29:56;;;;;;;18.88;18.17;;;;;;;-141.02;100.00;107971.50;5114679;28;20660;-63
2023/07/31 02:32:29;;;;;;;17.75;17.15;;;;;;;-141.02;100.00;107971.50;5114582;28;20204;-57
2023/07/31 02:38:18;;;;;;;16.20;15.70;;;;;;;-141.02;100.00;107971.50;5114422;28;20211;-61
2023/07/31 02:40:45;;;;;;;16.65;16.10;;;;;;;-141.02;100.00;107971.50;5114532;28;20319;-58
2023/07/31 02:43:12;;;;;;;13.85;13.45;;;;;;;-141.02;100.00;107971.50;5114206;28;20257;-57
2023/07/31 02:45:40;;;;;;;13.32;12.93;;;;;;;-141.02;100.00;107971.50;5114123;28;20240;-57
2023/07/31 02:48:07;;;;;;;12.88;12.48;;;;;;;-141.02;100.00;107971.50;5114004;28;20782;-58
2023/07/31 02:50:34;;;;;;;11.77;11.48;;;;;;;-141.02;100.00;107971.50;5113935;28;20250;-66
2023/07/31 02:53:01;;;;;;;11.15;10.85;;;;;;;-141.02;100.00;107971.50;5114240;28;20288;-61
2023/07/31 02:55:28;;;;;;;11.15;10.85;;;;;;;-141.02;100.00;107971.50;5114508;28;20199;-57
2023/07/31 02:57:55;;;;;;;11.18;10.88;;;;;;;-141.02;100.00;107971.50;5113911;28;20283;-61
2023/07/31 03:00:22;;;;;;;10.48;10.18;;;;;;;-141.02;100.00;107971.50;5114153;27;20231;-61
2023/07/31 03:02:51;;;;;;;10.45;10.15;;;;;;;-141.02;100.00;107971.50;5113685;28;20712;-57
2023/07/31 03:05:18;;;;;;;10.50;10.20;;;;;;;-141.02;100.00;107971.50;5113744;28;20267;-60
2023/07/31 03:07:45;;;;;;;10.68;10.38;;;;;;;-141.02;100.00;107971.50;5113710;28;20741;-60
2023/07/31 03:11:03;;;;;;;10.40;10.10;;;;;;;-141.02;100.00;107971.50;5114175;28;20235;-63
2023/07/31 03:13:30;;;;;;;10.10;9.80;;;;;;;-141.02;100.00;107971.50;5113944;28;20190;-62
2023/07/31 03:15:57;;;;;;;10.27;9.98;;;;;;;-141.02;100.00;107971.50;5113602;28;20243;-59
2023/07/31 03:18:25;;;;;;;10.20;9.90;;;;;;;-141.02;100.00;107971.50;5113800;28;20591;-57
2023/07/31 03:20:52;;;;;;;10.40;10.10;;;;;;;-141.02;100.00;107971.50;5113691;28;20193;-63
2023/07/31 03:23:19;;;;;;;10.77;10.48;;;;;;;-141.02;100.00;107971.50;5113306;28;20200;-61
2023/07/31 03:25:58;;;;;;;10.00;9.70;;;;;;;-141.02;100.00;107971.50;5113707;28;20276;-61
2023/07/31 03:28:26;;;;;;;10.00;9.70;;;;;;;-141.02;100.00;107971.50;5113276;28;20248;-63
2023/07/31 03:31:34;;;;;;;10.20;9.90;;;;;;;-141.02;100.00;107971.50;5113280;28;20661;-57
2023/07/31 03:34:28;;;;;;;9.68;9.38;;;;;;;-141.02;100.00;107971.50;5113574;28;20284;-56
2023/07/31 03:36:55;;;;;;;9.18;8.98;;;;;;;-141.02;100.00;107971.50;5113232;28;20229;-56
2023/07/31 03:39:22;;;;;;;9.20;9.00;;;;;;;-141.02;100.00;107971.50;5112979;28;20196;-67
2023/07/31 03:41:49;;;;;;;8.50;8.30;;;;;;;-141.02;100.00;107971.50;5112994;28;20225;-57
2023/07/31 03:44:57;;;;;;;8.35;8.15;;;;;;;-141.02;100.00;107971.50;5113024;28;20250;-60
2023/07/31 03:47:36;;;;;;;9.50;9.20;;;;;;;-141.02;100.00;107971.50;5113228;28;20276;-60
2023/07/31 03:50:05;;;;;;;8.70;8.50;;;;;;;-141.02;100.00;107971.50;5112932;28;20204;-61
2023/07/31 03:52:32;;;;;;;8.60;8.40;;;;;;;-141.02;100.00;107971.50;5113206;28;20633;-59
2023/07/31 03:58:57;;;;;;;7.57;7.38;;;;;;;-141.02;100.00;107971.50;5112909;28;20208;-60
2023/07/31 04:02:05;;;;;;;8.25;8.05;;;;;;;-141.02;100.00;107971.50;5113112;28;20224;-57
2023/07/31 04:05:11;;;;;;;8.40;8.20;;;;;;;-141.02;100.00;107971.50;5112742;28;20662;-58
2023/07/31 04:11:01;;;;;;;8.05;7.85;;;;;;;-141.02;100.00;107971.50;5112659;28;20180;-61
2023/07/31 04:14:06;;;;;;;8.10;7.90;;;;;;;-141.02;100.00;107971.50;5112715;28;20250;-58
2023/07/31 04:17:16;;;;;;;8.40;8.20;;;;;;;-141.02;100.00;107971.50;5112565;28;20197;-62
2023/07/31 04:19:49;;;;;;;8.65;8.45;;;;;;;-141.02;100.00;107971.50;5113277;28;20695;-60
2023/07/31 04:22:16;;;;;;;10.52;10.23;;;;;;;-141.02;100.00;107971.50;5112618;28;20280;-67
2023/07/31 04:24:43;;;;;;;12.70;12.30;;;;;;;-141.02;100.00;107971.50;5112680;28;20250;-64
2023/07/31 04:33:54;;;;;;;15.20;14.70;;;;;;;-141.02;100.00;106467.22;5112391;28;20237;-58
2023/07/31 04:36:59;;;;;;;15.20;14.60;;;;;;;-141.02;100.00;106467.22;5112278;28;20668;-61
2023/07/31 04:39:32;;;;;;;14.65;14.15;;;;;;;-141.02;100.00;106467.22;5112270;28;20197;-66
2023/07/31 04:43:01;;;;;;;14.32;13.82;;;;;;;-141.02;100.00;106717.56;5103061;28;20311;-64
2023/07/31 04:45:33;;;;;;;14.30;13.80;;;;;;;-141.02;100.00;106967.91;5112438;28;20192;-65
2023/07/31 04:48:00;;;;;;;15.35;14.75;;;;;;;-141.02;100.00;106967.91;5112227;28;20636;-63
2023/07/31 04:50:30;;;;;;;15.10;14.60;;;;;;;-141.02;100.00;107218.31;5112171;28;20225;-63
2023/07/31 04:53:30;;;;;;;14.48;13.98;;;;;;;-141.02;100.00;106967.91;5112100;28;20204;-63
2023/07/31 04:55:57;;;;;;;13.70;13.30;;;;;;;-141.02;100.00;106967.91;5112336;28;20239;-64
2023/07/31 04:58:54;;;;;;;13.27;12.88;;;;;;;-141.02;100.00;105966.59;5112322;28;20663;-63
2023/07/31 05:01:21;;;;;;;15.50;14.80;;;;;;;-141.02;100.00;103214.44;5112483;28;20612;-58
2023/07/31 05:03:48;;;;;;;16.65;15.95;;;;;;;-141.02;100.00;99464.97;5112224;28;20579;-62
2023/07/31 05:06:17;;;;;;;16.80;16.00;;;;;;;-141.02;100.00;96717.94;5112085;28;20232;-58
2023/07/31 05:08:44;;;;;;;16.58;15.88;;;;;;;-141.02;100.00;95719.53;5112405;28;20297;-59
2023/07/31 05:11:11;;;;;;;16.15;15.38;;;;;;;-141.02;100.00;95969.13;5112012;28;20199;-61
2023/07/31 05:13:38;;;;;;;14.77;14.18;;;;;;;-141.02;100.00;95470.00;5112265;28;20197;-68
2023/07/31 05:16:05;;;;;;;14.20;13.60;;;;;;;-141.02;100.00;93973.06;5112303;28;20201;-64
2023/07/31 05:18:32;;;;;;;14.00;13.40;;;;;;;-141.02;100.00;93224.84;5114070;28;20204;-68
2023/07/31 05:20:59;;;;;;;14.27;13.68;;;;;;;-141.02;100.00;93224.84;5116089;28;20276;-63
2023/07/31 05:23:27;;;;;;;13.93;13.32;;;;;;;-141.02;100.00;92476.78;5115890;28;20229;-70
2023/07/31 05:25:54;;;;;;;13.95;13.35;;;;;;;-141.02;100.00;92975.47;5116051;28;20193;-66
2023/07/31 05:28:22;;;;;;;13.90;13.30;;;;;;;-141.02;100.00;93224.84;5116016;28;20251;-63
2023/07/31 05:30:49;;;;;;;13.75;13.15;;;;;;;-141.02;100.00;92726.13;5115962;28;20189;-64
2023/07/31 05:33:16;;;;;;;13.70;13.10;;;;;;;-141.02;100.00;92975.47;5115496;28;20204;-61
2023/07/31 05:35:44;;;;;;;13.65;13.05;;;;;;;-141.02;100.00;93723.63;5115564;28;20663;-67
2023/07/31 05:38:11;;;;;;;13.80;13.20;;;;;;;-141.02;100.00;93474.22;5115730;28;20208;-71
2023/07/31 05:40:40;;;;;;;13.88;13.27;;;;;;;-141.02;100.00;91230.38;5116612;28;20269;-57
2023/07/31 05:43:08;;;;;;;13.23;12.73;;;;;;;-141.02;100.00;91978.16;5115214;28;20695;-59
2023/07/31 05:45:35;;;;;;;13.43;12.93;;;;;;;-141.02;100.00;92726.13;5115546;28;20221;-66
2023/07/31 05:48:02;;;;;;;13.85;13.25;;;;;;;-141.02;100.00;93474.22;5115263;28;20232;-66
2023/07/31 05:50:29;;;;;;;13.90;13.30;;;;;;;-141.02;100.00;92476.78;5115772;28;20250;-72
2023/07/31 05:52:56;;;;;;;14.45;13.75;;;;;;;-141.02;100.00;90981.13;5115879;28;20676;-68
2023/07/31 05:55:23;;;;;;;14.55;13.85;;;;;;;-141.02;100.00;89486.16;5115201;28;20685;-69
2023/07/31 05:57:51;;;;;;;14.32;13.63;;;;;;;-141.02;100.00;88489.84;5115027;28;20667;-73
2023/07/31 06:00:18;;;;;;;14.80;14.00;;;;;;;-141.02;100.00;88240.81;5115527;28;20197;-72
2023/07/31 06:02:45;;;;;;;15.25;14.45;;;;;;;-141.02;100.00;86249.22;5115242;27;20728;-71
2023/07/31 06:05:12;;;;;;;14.93;14.13;;;;;;;-141.02;100.00;86000.34;5115241;28;20199;-70
2023/07/31 06:07:39;;;;;;;15.00;14.20;;;;;;;-141.02;100.00;85502.66;5115090;28;20629;-67
2023/07/31 06:10:08;;;;;;;15.38;14.48;;;;;;;-141.02;100.00;85005.03;5115022;28;20311;-72
2023/07/31 06:12:35;;;;;;;15.55;14.65;;;;;;;-141.02;100.00;83761.31;5115145;28;20207;-65
2023/07/31 06:15:05;;;;;;;15.88;14.98;;;;;;;-141.02;100.00;82518.06;5114641;28;20193;-68
2023/07/31 06:17:33;;;;;;;15.60;14.70;;;;;;;-141.02;100.00;82020.88;5114737;28;20667;-71
2023/07/31 06:19:59;;;;;;;15.55;14.65;;;;;;;-141.02;100.00;82020.88;5114844;28;20193;-71
2023/07/31 06:22:26;;;;;;;15.32;14.48;;;;;;;-141.02;100.00;80778.25;5114818;28;20276;-71
2023/07/31 06:24:53;;;;;;;15.18;14.38;;;;;;;-141.02;100.00;81275.25;5114891;28;20225;-69
2023/07/31 06:27:20;;;;;;;14.65;13.95;;;;;;;-141.02;100.00;83015.31;5114446;28;20726;-71
2023/07/31 06:29:47;;;;;;;14.32;13.63;;;;;;;-141.02;100.00;82518.06;5113877;28;20282;-71
2023/07/31 06:32:16;;;;;;;14.25;13.55;;;;;;;-141.02;100.00;83761.31;5114319;27;20201;-72
2023/07/31 06:34:43;;;;;;;14.23;13.52;;;;;;;-141.02;100.00;85253.84;5114370;28;20652;-67
2023/07/31 06:37:10;;;;;;;14.48;13.77;;;;;;;-141.02;100.00;84258.75;5114364;28;20289;-66
2023/07/31 06:39:37;;;;;;;14.60;13.90;;;;;;;-141.02;100.00;83263.97;5114586;28;20281;-72
2023/07/31 06:42:05;;;;;;;15.25;14.45;;;;;;;-141.02;100.00;82020.88;5114876;28;20224;-69
2023/07/31 06:44:32;;;;;;;15.05;14.25;;;;;;;-141.02;100.00;81772.31;5114414;28;20189;-62
2023/07/31 06:46:59;;;;;;;15.05;14.25;;;;;;;-141.02;100.00;81275.25;5114474;28;20281;-62
2023/07/31 06:49:27;;;;;;;15.55;14.65;;;;;;;-141.02;100.00;77549.47;5114304;28;20229;-68
2023/07/31 06:51:54;;;;;;;15.10;14.30;;;;;;;-141.02;100.00;78542.63;5114113;28;20194;-68
2023/07/31 06:54:21;;;;;;;14.48;13.77;;;;;;;-141.02;100.00;78542.63;5113987;28;20229;-64
2023/07/31 06:56:48;;;;;;;14.32;13.63;;;;;;;-141.02;100.00;78542.63;5114184;28;20270;-69
2023/07/31 06:59:15;;;;;;;13.35;12.75;;;;;;;-141.02;100.00;79784.44;5113967;28;20279;-68
2023/07/31 07:01:42;;;;;;;13.18;12.60;;;;;;;-141.02;100.00;79784.44;5113759;28;20237;-61
2023/07/31 07:04:09;;;;;;;12.85;12.35;;;;;;;-141.02;100.00;80529.75;5114109;28;20280;-64
2023/07/31 07:06:37;;;;;;;13.23;12.70;;;;;;;-141.02;100.00;79784.44;5114029;28;20225;-63
2023/07/31 07:09:04;;;;;;;13.55;12.95;;;;;;;-141.02;100.00;79784.44;5113852;28;20312;-71
2023/07/31 07:11:32;;;;;;;13.43;12.82;;;;;;;-141.02;100.00;80032.88;5113727;28;20197;-58
2023/07/31 07:13:59;;;;;;;13.85;13.25;;;;;;;-141.02;100.00;79536.03;5113434;28;20682;-64
2023/07/31 07:16:26;;;;;;;14.18;13.48;;;;;;;-141.02;100.00;79039.28;5113544;28;20778;-67
2023/07/31 07:18:53;;;;;;;14.43;13.73;;;;;;;-141.02;100.00;77797.72;5113814;28;20229;-70
2023/07/31 07:21:20;;;;;;;14.43;13.73;;;;;;;-141.02;100.00;75067.88;5113894;28;20196;-71
2023/07/31 07:23:48;;;;;;;14.35;13.65;;;;;;;-141.02;100.00;77797.72;5113423;28;20230;-64
2023/07/31 07:26:15;;;;;;;14.60;13.90;;;;;;;-141.02;100.00;78046.00;5113562;28;20200;-61
2023/07/31 07:28:42;;;;;;;15.80;14.93;;;;;;;-141.02;100.00;76308.44;5113227;28;20233;-61
2023/07/31 07:31:09;;;;;;;15.85;14.95;;;;;;;-141.02;98.42;74571.75;5113475;28;20641;-60
2023/07/31 07:33:36;;;;;;;16.02;15.13;;;;;;;-141.02;98.37;74323.72;5113166;28;20280;-65
2023/07/31 07:36:03;;;;;;;16.25;15.35;;;;;;;-141.02;96.29;73827.72;5113156;28;20280;-59
2023/07/31 07:38:30;;;;;;;16.85;15.85;;;;;;;-141.02;94.29;72588.06;5112897;28;20284;-66
2023/07/31 07:40:59;;;;;;;16.30;15.40;;;;;;;-141.02;93.82;72588.06;5112965;28;20233;-61
2023/07/31 07:43:26;;;;;;;17.05;16.05;;;;;;;-141.02;91.02;70605.50;5112320;28;20228;-62
2023/07/31 07:45:53;;;;;;;16.27;15.38;;;;;;;-141.02;90.34;70605.50;5112855;28;20228;-61
2023/07/31 07:48:20;;;;;;;16.88;15.88;;;;;;;-141.02;87.16;70853.25;5113077;28;20246;-59
2023/07/31 07:50:47;;;;;;;17.40;16.40;;;;;;;-141.02;85.36;68376.50;5112705;28;20268;-59
2023/07/31 07:53:14;;;;;;;17.30;16.20;;;;;;;-141.02;89.16;69366.97;5112868;28;20667;-64
2023/07/31 07:55:41;;;;;;;17.10;16.10;;;;;;;-141.02;82.45;68128.91;5112677;28;20279;-59
2023/07/31 07:58:09;;;;;;;17.20;16.25;;;;;;;-141.02;84.17;65901.53;5112779;28;20279;-59
2023/07/31 08:00:36;;;;;;;37.83;34.88;;;;;;;-141.02;84.67;65159.41;5112997;28;20236;-60
2023/07/31 08:03:03;;;;;;;17.08;16.17;;;;;;;-141.02;82.96;66148.94;5112642;28;20192;-62
2023/07/31 08:05:33;;;;;;;16.95;16.05;;;;;;;-141.02;83.70;65654.13;5112999;28;20251;-60
2023/07/31 08:08:00;;;;;;;17.08;16.17;;;;;;;-141.02;80.09;63181.16;5112937;28;20186;-66
2023/07/31 08:10:27;;;;;;;17.23;16.33;;;;;;;-141.02;80.89;61945.31;5112566;28;20220;-61
2023/07/31 08:12:54;;;;;;;17.00;16.10;;;;;;;-141.02;84.46;60709.94;5112798;28;20193;-60
2023/07/31 08:15:23;;;;;;;16.92;16.02;;;;;;;-141.02;87.38;60709.94;5112608;28;20197;-64
2023/07/31 08:17:50;;;;;;;16.98;16.17;;;;;;;-141.02;90.05;59968.94;5112475;28;20197;-58
2023/07/31 08:20:17;;;;;;;16.40;15.60;;;;;;;-141.02;90.23;60462.94;5112778;28;20197;-62
2023/07/31 08:22:44;;;;;;;16.58;15.77;;;;;;;-141.02;90.63;60462.94;5112776;28;20251;-59
2023/07/31 08:25:11;;;;;;;16.20;15.40;;;;;;;-141.02;89.20;61945.31;5112391;28;20273;-64
2023/07/31 08:27:38;;;;;;;16.70;15.90;;;;;;;-141.02;86.02;61698.22;5112693;28;20193;-61
2023/07/31 08:30:06;;;;;;;16.60;15.75;;;;;;;-141.02;85.85;59475.03;5112250;28;20264;-58
2023/07/31 08:32:35;;;;;;;16.85;16.15;;;;;;;-141.02;88.35;58734.28;5112446;28;20280;-61
2023/07/31 08:35:02;;;;;;;16.50;15.80;;;;;;;-141.02;88.34;61204.03;5112595;28;20235;-61
2023/07/31 08:37:29;;;;;;;16.67;15.98;;;;;;;-141.02;86.48;60709.94;5112573;28;20201;-61
2023/07/31 08:39:56;;;;;;;16.80;16.08;;;;;;;-141.02;84.43;60462.94;5112360;28;20230;-59
2023/07/31 08:42:25;;;;;;;17.05;16.27;;;;;;;-141.02;85.11;58240.56;5112160;28;20760;-62
2023/07/31 08:44:53;;;;;;;16.92;16.23;;;;;;;-141.02;85.45;57993.72;5112574;28;20595;-61
2023/07/31 08:47:21;;;;;;;17.10;16.40;;;;;;;-141.02;87.27;62192.44;5112502;28;20255;-67
2023/07/31 08:49:52;;;;;;;17.63;16.83;;;;;;;-141.02;81.27;59475.03;5112101;28;20609;-58
2023/07/31 08:52:19;;;;;;;18.00;17.20;;;;;;;-141.02;79.90;57253.28;5112209;28;20196;-62
2023/07/31 08:54:46;;;;;;;18.02;17.23;;;;;;;-141.02;82.30;56343.41;5116156;28;20250;-61
2023/07/31 08:57:14;;;;;;;17.77;16.98;;;;;;;-141.02;83.22;57353.53;5116587;28;20229;-62
2023/07/31 08:59:42;;;;;;;18.38;17.58;;;;;;;-141.02;80.94;55601.44;5116483;28;20254;-64
2023/07/31 09:02:10;;;;;;;18.38;17.58;;;;;;;-141.02;80.69;56324.16;5116167;28;20193;-59
2023/07/31 09:04:37;;;;;;;17.98;17.17;;;;;;;-141.02;78.89;56179.59;5116456;28;20236;-60
2023/07/31 09:07:09;;;;;;;17.50;16.70;;;;;;;-141.02;76.92;56135.25;5116043;28;20284;-61
2023/07/31 09:09:36;;;;;;;18.60;17.80;;;;;;;-141.02;78.48;55366.34;5116274;28;20205;-59
2023/07/31 09:12:03;;;;;;;18.17;17.38;;;;;;;-141.02;80.65;54928.97;5115889;28;20232;-58
2023/07/31 09:14:30;;;;;;;18.08;17.27;;;;;;;-141.02;79.57;58487.41;5115993;28;20241;-60
2023/07/31 09:16:59;;;;;;;18.48;17.67;;;;;;;-141.02;75.79;59475.03;5115825;28;20192;-67
2023/07/31 09:19:28;;;;;;;19.15;18.25;;;;;;;-141.02;70.75;59228.09;5115875;28;20201;-63
2023/07/31 09:21:55;;;;;;;17.98;17.17;;;;;;;-141.02;71.67;58444.97;5115801;28;20194;-64
2023/07/31 09:24:31;;;;;;;17.88;17.08;;;;;;;-141.02;68.94;54119.88;5116068;28;20242;-63
2023/07/31 09:26:59;;;;;;;19.48;18.58;;;;;;;-141.02;69.28;57245.56;5115756;27;20193;-59
2023/07/31 09:29:27;;;;;;;20.23;19.33;;;;;;;-141.02;67.42;56193.09;5115804;28;20189;-59
2023/07/31 09:31:55;;;;;;;21.20;20.20;;;;;;;-141.02;64.02;53249.38;5115930;28;20233;-59
2023/07/31 09:34:30;;;;;;;21.30;20.30;;;;;;;-141.02;67.43;53740.44;5115869;28;20225;-59
2023/07/31 09:37:02;;;;;;;20.85;19.85;;;;;;;-141.02;67.40;54792.19;5115879;28;20647;-62
2023/07/31 09:39:31;;;;;;;21.08;20.08;;;;;;;-141.02;66.10;50716.13;5115775;28;20242;-60
2023/07/31 09:41:58;;;;;;;20.73;19.73;;;;;;;-141.02;68.67;50081.19;5115477;28;20233;-60
2023/07/31 09:44:40;;;;;;;20.23;19.33;;;;;;;-141.02;68.54;50100.41;5115703;27;20201;-61
2023/07/31 09:47:07;;;;;;;20.27;19.38;;;;;;;-141.02;69.06;52488.81;5115370;28;20193;-59
2023/07/31 09:49:34;;;;;;;20.70;19.70;;;;;;;-141.02;65.92;53395.72;5115451;28;20262;-62
2023/07/31 09:52:01;;;;;;;20.92;19.92;;;;;;;-141.02;62.60;52475.31;5115524;28;20196;-61
2023/07/31 09:54:29;;;;;;;19.20;18.30;;;;;;;-141.02;64.73;50337.06;5115510;27;20242;-60
2023/07/31 09:57:00;;;;;;;20.58;19.58;;;;;;;-141.02;65.56;52725.63;5115456;28;20235;-65
2023/07/31 09:59:27;;;;;;;20.27;19.27;;;;;;;-141.02;65.70;49204.00;5115362;28;20203;-59
2023/07/31 10:01:57;;;;;;;20.13;19.13;;;;;;;-141.02;66.46;50154.28;5115001;28;20197;-59
2023/07/31 10:04:30;;;;;;;19.75;18.85;;;;;;;-141.02;65.73;49269.41;5114405;28;20181;-59
2023/07/31 10:07:00;;;;;;;20.38;19.38;;;;;;;-141.02;68.36;49407.88;5114995;28;20225;-65
2023/07/31 10:09:34;;;;;;;38.95;36.95;;;;;;;-141.02;67.61;51559.03;5114774;28;20209;-67
2023/07/31 10:12:03;;;;;;;40.72;38.50;;;;;;;-141.02;64.71;51816.97;5115196;28;20263;-65
2023/07/31 10:14:32;;;;;;;40.42;38.22;;;;;;;-141.02;62.23;49607.94;5115284;28;20280;-63
2023/07/31 10:17:00;;;;;;;20.60;19.60;;;;;;;-141.02;63.90;49023.22;5114707;28;20725;-67
2023/07/31 10:19:28;;;;;;;20.15;19.15;;;;;;;-141.02;65.20;48561.66;5114638;28;20288;-65
2023/07/31 10:21:58;;;;;;;20.13;19.13;;;;;;;-141.02;65.44;49321.31;5114924;28;20193;-67
2023/07/31 10:24:26;;;;;;;19.83;18.83;;;;;;;-141.02;63.63;49073.22;5114941;28;20204;-61
2023/07/31 10:27:01;;;;;;;19.65;18.75;;;;;;;-141.02;61.92;49931.13;5114507;28;20195;-66
2023/07/31 10:29:29;;;;;;;20.38;19.38;;;;;;;-141.02;61.43;49569.47;5115013;28;20220;-60
2023/07/31 10:31:58;;;;;;;21.00;20.00;;;;;;;-141.02;59.52;49261.69;5114670;28;20193;-66
2023/07/31 10:34:25;;;;;;;20.63;19.63;;;;;;;-141.02;59.47;47757.94;5114679;28;20201;-65
2023/07/31 10:37:25;;;;;;;19.95;18.95;;;;;;;-141.02;62.24;47394.59;5114605;28;20193;-60
2023/07/31 10:40:03;;;;;;;20.45;19.45;;;;;;;-141.02;62.16;46677.63;5114499;28;20196;-64
2023/07/31 10:42:35;;;;;;;20.45;19.45;;;;;;;-141.02;61.57;46373.97;5114520;28;20224;-64
2023/07/31 10:45:05;;;;;;;20.58;19.58;;;;;;;-141.02;61.72;46256.75;5114259;28;20728;-64
2023/07/31 10:47:37;;;;;;;20.42;19.42;;;;;;;-141.02;62.82;46370.13;5114347;28;20221;-65
2023/07/31 10:50:21;;;;;;;20.05;19.05;;;;;;;-141.02;63.72;45593.81;5114454;28;20220;-67
2023/07/31 10:52:49;;;;;;;20.30;19.20;;;;;;;-141.02;62.30;45943.53;5114314;28;20235;-66
2023/07/31 10:55:28;;;;;;;19.75;18.75;;;;;;;-141.02;62.95;46379.75;5114242;28;20209;-61
2023/07/31 10:57:58;;;;;;;19.73;18.73;;;;;;;-141.02;61.91;46523.88;5113943;28;20185;-66
2023/07/31 11:00:28;;;;;;;19.60;18.60;;;;;;;-141.02;61.68;47246.56;5114187;28;20228;-66
2023/07/31 11:02:59;;;;;;;19.83;18.83;;;;;;;-141.02;60.65;47623.34;5114115;28;20193;-63
2023/07/31 11:05:46;;;;;;;21.45;19.80;;;;;;;-141.02;60.51;48596.25;5113812;28;20689;-66
2023/07/31 11:08:15;;;;;;;20.17;19.08;;;;;;;-141.02;60.69;48473.19;5114040;28;20640;-67
2023/07/31 11:10:42;;;;;;;20.00;19.00;;;;;;;-141.02;61.19;46700.69;5113646;28;20221;-66
2023/07/31 11:13:11;;;;;;;19.73;18.73;;;;;;;-141.02;61.36;46176.03;5113914;28;20197;-65
2023/07/31 11:15:38;;;;;;;19.48;18.48;;;;;;;-141.02;63.32;45332.53;5114012;28;20280;-66
2023/07/31 11:18:07;;;;;;;19.58;18.58;;;;;;;-141.02;64.21;44967.53;5113849;28;20257;-64
2023/07/31 11:20:36;;;;;;;19.13;18.13;;;;;;;-141.02;64.05;46379.75;5113477;28;20674;-66
2023/07/31 11:23:04;;;;;;;19.02;18.02;;;;;;;-141.02;61.08;47335.00;5113707;28;20243;-64
2023/07/31 11:25:32;;;;;;;19.20;18.20;;;;;;;-141.02;58.12;48184.75;5113498;28;20240;-65
2023/07/31 11:28:02;;;;;;;19.38;18.38;;;;;;;-141.02;56.34;48853.97;5113414;28;20282;-66